Time;durP1;ratioP1;P1;durP2;ratioP2;P2;SDS_P1;SDS_P2;PMS_P1;PMS_P2;Temp;Humidity;BMP_temperature;BMP_pressure;BME280_temperature;BME280_humidity;BME280_pressure;Samples;Min_cycle;Max_cycle;Signal;HPM_P1;HPM_P2
2022/09/17 00:01:29;;;;;;;2.43;0.97;;;15.90;64.60;;;-142.21;81.88;112049.66;5134759;27;20492;-75
2022/09/17 00:04:03;;;;;;;0.60;0.60;;;15.90;64.30;;;-142.21;82.26;112049.66;5116490;27;20448;-75
2022/09/17 00:06:32;;;;;;;2.97;0.93;;;15.70;64.40;;;-142.21;83.63;112049.66;5135413;27;20786;-80
2022/09/17 00:09:00;;;;;;;1.83;0.90;;;15.80;65.50;;;-142.21;82.77;112049.66;5132811;27;20497;-79
2022/09/17 00:11:32;;;;;;;2.13;0.80;;;15.90;64.90;;;-142.21;81.69;112049.66;5133725;27;20995;-77
2022/09/17 00:14:05;;;;;;;1.77;0.70;;;15.90;64.50;;;-142.21;81.66;112049.66;5133506;27;21170;-74
2022/09/17 00:16:38;;;;;;;2.40;1.10;;;16.00;64.40;;;-142.21;81.44;112049.66;5134927;27;20463;-74
2022/09/17 00:19:10;;;;;;;1.27;0.80;;;16.00;64.10;;;-142.21;81.16;112049.66;5134843;27;20437;-75
2022/09/17 00:21:37;;;;;;;3.20;1.03;;;15.90;63.60;;;-142.21;82.19;112049.66;5134339;27;20513;-74
2022/09/17 00:24:07;;;;;;;1.10;1.00;;;15.90;64.30;;;-142.21;82.02;112049.66;5134383;27;20958;-74
2022/09/17 00:26:36;;;;;;;2.30;1.03;;;15.80;64.30;;;-142.21;82.12;112049.66;5135850;27;20437;-74
2022/09/17 00:29:05;;;;;;;2.30;0.97;;;15.80;64.40;;;-142.21;82.22;112049.66;5133875;27;20441;-75
2022/09/17 00:31:35;;;;;;;1.50;0.83;;;15.70;64.40;;;-142.21;82.57;112049.66;5134781;27;20490;-76
2022/09/17 00:34:04;;;;;;;1.27;0.83;;;15.60;64.70;;;-142.21;82.47;112049.66;5134435;27;20440;-75
2022/09/17 00:36:36;;;;;;;2.77;1.10;;;15.60;64.60;;;-142.21;82.26;112049.66;5134641;27;20448;-74
2022/09/17 00:39:05;;;;;;;1.50;0.90;;;15.60;64.50;;;-142.21;82.68;112049.66;5133669;27;20510;-74
2022/09/17 00:41:38;;;;;;;1.27;1.00;;;15.60;64.70;;;-142.21;82.73;112049.66;5134329;27;20484;-75
2022/09/17 00:44:45;;;;;;;2.07;0.83;;;15.60;64.70;;;-142.21;82.58;112049.66;5134322;27;20473;-75
2022/09/17 00:47:19;;;;;;;1.33;1.00;;;15.70;64.70;;;-142.21;82.64;112049.66;5132457;27;20472;-74
2022/09/17 00:49:49;;;;;;;2.47;1.00;;;15.80;64.70;;;-142.21;82.33;112049.66;5129086;27;20437;-75
2022/09/17 00:52:25;;;;;;;1.60;0.83;;;15.80;64.30;;;-142.21;82.87;112049.66;5115719;27;20449;-75
2022/09/17 00:54:58;;;;;;;1.10;1.00;;;15.80;64.40;;;-142.21;82.90;112049.66;5133373;27;20436;-74
2022/09/17 00:57:28;;;;;;;2.13;1.20;;;15.70;64.50;;;-142.21;83.58;112049.66;5133777;27;20764;-75
2022/09/17 00:59:56;;;;;;;2.93;1.10;;;15.60;64.80;;;-142.21;83.13;112049.66;5133469;27;20451;-74
2022/09/17 01:02:23;;;;;;;1.63;0.97;;;15.40;64.70;;;-142.21;83.97;112049.66;5133686;27;20445;-74
2022/09/17 01:04:51;;;;;;;2.03;1.20;;;15.40;65.40;;;-142.21;84.04;112049.66;5132594;27;20801;-74
2022/09/17 01:07:49;;;;;;;1.47;1.10;;;15.40;65.50;;;-142.21;83.98;112049.66;5133296;27;20440;-74
2022/09/17 01:10:41;;;;;;;1.53;1.03;;;15.40;65.60;;;-142.21;83.63;112049.66;5126164;27;20452;-75
2022/09/17 01:13:28;;;;;;;1.33;1.00;;;15.50;65.60;;;-142.21;83.73;112049.66;5065925;27;20471;-76
2022/09/17 01:16:06;;;;;;;3.80;0.90;;;15.50;65.30;;;-142.21;83.97;112049.66;5133216;27;20437;-76
2022/09/17 01:18:50;;;;;;;1.00;0.90;;;15.40;65.20;;;-142.21;84.52;112049.66;5133435;27;20451;-75
2022/09/17 01:21:45;;;;;;;2.50;0.87;;;15.40;65.70;;;-142.21;84.70;112049.66;5133169;27;20472;-74
2022/09/17 01:25:00;;;;;;;2.93;1.03;;;15.40;66.10;;;-142.21;84.95;112049.66;5133081;27;20493;-75
2022/09/17 01:28:23;;;;;;;1.67;0.90;;;15.40;66.10;;;-142.21;85.40;112049.66;5133099;27;20437;-75
2022/09/17 01:31:26;;;;;;;1.20;1.10;;;15.30;66.40;;;-142.21;85.42;112049.66;5086745;28;20460;-75
2022/09/17 01:34:07;;;;;;;1.93;1.00;;;15.40;66.40;;;-142.21;85.27;112049.66;5123497;27;20437;-74
2022/09/17 01:36:54;;;;;;;4.63;1.50;;;15.40;66.10;;;-142.21;85.23;112049.66;5064546;27;20524;-75
2022/09/17 01:39:37;;;;;;;1.10;0.90;;;15.50;66.10;;;-142.21;84.25;112049.66;5132846;27;20436;-75
2022/09/17 01:42:17;;;;;;;1.43;1.17;;;15.50;65.50;;;-142.21;85.23;112049.66;5132424;27;20475;-74
2022/09/17 01:44:56;;;;;;;1.13;1.03;;;15.40;65.80;;;-142.21;85.23;112049.66;5132486;27;20916;-75
2022/09/17 01:47:31;;;;;;;2.10;1.10;;;15.40;65.80;;;-142.21;85.45;112049.66;5133059;27;20807;-74
2022/09/17 01:50:08;;;;;;;1.73;1.17;;;15.40;66.20;;;-142.21;85.37;112049.66;5132147;27;20437;-74
2022/09/17 01:52:41;;;;;;;2.53;1.10;;;15.20;66.00;;;-142.21;85.57;112049.66;5098769;27;20475;-74
2022/09/17 01:55:13;;;;;;;1.87;1.20;;;15.10;66.30;;;-142.21;85.80;112049.66;5132333;27;20951;-74
2022/09/17 01:57:48;;;;;;;1.50;1.10;;;15.10;66.50;;;-142.21;85.63;112049.66;5132597;27;20425;-74
2022/09/17 02:00:17;;;;;;;1.20;1.00;;;15.10;66.40;;;-142.21;86.05;112049.66;5121184;27;21000;-75
2022/09/17 02:02:52;;;;;;;3.13;1.30;;;15.10;66.60;;;-142.21;85.78;112049.66;5114553;27;20976;-73
2022/09/17 02:05:27;;;;;;;1.73;0.90;;;15.10;66.70;;;-142.21;85.20;112049.66;5132711;27;20467;-75
2022/09/17 02:08:00;;;;;;;4.33;0.93;;;15.00;66.30;;;-142.21;85.33;112049.66;5113500;27;20437;-75
2022/09/17 02:10:34;;;;;;;1.33;1.00;;;15.00;66.50;;;-142.21;85.33;112049.66;5132237;27;20785;-75
2022/09/17 02:13:10;;;;;;;3.23;1.20;;;15.00;66.50;;;-142.21;85.63;112049.66;5132108;28;20437;-74
2022/09/17 02:15:47;;;;;;;1.27;1.17;;;15.00;66.60;;;-142.21;85.50;112049.66;5132618;28;20429;-73
2022/09/17 02:18:24;;;;;;;1.40;1.13;;;15.10;66.40;;;-142.21;85.07;112049.66;5133074;27;20437;-74
2022/09/17 02:21:03;;;;;;;4.83;1.00;;;15.10;66.30;;;-142.21;85.63;112049.66;5132048;28;20464;-75
2022/09/17 02:23:41;;;;;;;0.80;0.77;;;15.00;66.50;;;-142.21;85.21;112049.66;5132448;28;21000;-74
2022/09/17 02:26:15;;;;;;;2.13;1.10;;;15.00;66.50;;;-142.21;85.07;112049.66;5132006;28;20441;-73
2022/09/17 02:28:48;;;;;;;2.03;1.23;;;15.00;66.50;;;-142.21;85.29;112049.66;5132354;28;20913;-74
2022/09/17 02:31:15;;;;;;;3.10;1.17;;;14.90;67.20;;;-142.21;85.76;112049.66;5132398;28;20836;-75
2022/09/17 02:33:50;;;;;;;1.97;0.90;;;14.90;66.80;;;-142.21;85.61;112049.66;5114351;28;20441;-75
2022/09/17 02:36:19;;;;;;;1.17;0.93;;;14.90;66.80;;;-142.21;85.26;112049.66;5113636;28;20461;-74
2022/09/17 02:38:47;;;;;;;1.50;0.80;;;14.90;66.60;;;-142.21;85.60;112049.66;5132410;28;20441;-74
2022/09/17 02:41:18;;;;;;;3.97;1.17;;;14.90;66.40;;;-142.21;85.89;112049.66;5114343;28;20531;-75
2022/09/17 02:44:00;;;;;;;3.33;1.10;;;14.80;66.40;;;-142.21;86.19;112049.66;5114848;28;20444;-75
2022/09/17 02:46:53;;;;;;;1.87;1.00;;;14.80;67.70;;;-142.21;86.30;112049.66;5132418;28;20436;-74
2022/09/17 02:49:48;;;;;;;4.27;1.00;;;14.70;67.00;;;-142.21;86.12;112049.66;5116139;28;20796;-75
2022/09/17 02:52:40;;;;;;;2.40;1.00;;;14.70;67.00;;;-142.21;86.30;112049.66;5131437;28;20940;-76
2022/09/17 02:55:18;;;;;;;3.40;0.93;;;14.70;66.80;;;-142.21;86.09;112049.66;5132073;28;20811;-74
2022/09/17 02:57:54;;;;;;;3.77;1.03;;;14.80;66.80;;;-142.21;86.12;112049.66;5132310;28;20445;-75
2022/09/17 03:00:23;;;;;;;1.97;1.20;;;14.90;66.80;;;-142.21;86.41;112049.66;5113758;28;21966;-74
2022/09/17 03:02:59;;;;;;;2.50;1.20;;;15.00;66.80;;;-142.21;85.98;112049.66;5113441;28;20440;-74
2022/09/17 03:05:29;;;;;;;2.07;1.23;;;15.10;66.30;;;-142.21;86.97;112049.66;5115216;28;20783;-75
2022/09/17 03:07:59;;;;;;;3.97;1.03;;;15.00;66.30;;;-142.21;88.35;112049.66;5131796;28;20447;-74
2022/09/17 03:10:32;;;;;;;1.77;1.00;;;15.00;67.10;;;-142.21;89.80;112049.66;5132469;28;20444;-74
2022/09/17 03:12:59;;;;;;;1.50;0.93;;;14.90;67.90;;;-142.21;90.63;112049.66;5131268;28;20988;-75
2022/09/17 03:15:27;;;;;;;1.53;1.37;;;14.80;68.40;;;-142.21;91.71;112049.66;5132368;28;20442;-76
2022/09/17 03:17:54;;;;;;;1.50;1.13;;;14.80;69.20;;;-142.21;92.03;112049.66;5112825;28;20859;-76
2022/09/17 03:20:21;;;;;;;2.30;1.03;;;14.80;69.40;;;-142.21;93.44;112049.66;5132785;27;20451;-75
2022/09/17 03:22:52;;;;;;;1.67;1.30;;;14.80;69.80;;;-142.21;94.18;112049.66;5135324;27;20479;-76
2022/09/17 03:25:19;;;;;;;1.40;1.00;;;14.90;70.40;;;-142.21;94.15;112049.66;5135920;27;20451;-75
2022/09/17 03:27:47;;;;;;;1.07;1.00;;;14.90;70.10;;;-142.21;94.61;112049.66;5082683;27;20473;-75
2022/09/17 03:30:14;;;;;;;1.53;1.07;;;15.00;70.40;;;-142.21;95.27;112049.66;5135357;27;20464;-76
2022/09/17 03:32:41;;;;;;;3.60;1.00;;;15.00;70.60;;;-142.21;95.16;112049.66;5135268;27;20479;-75
2022/09/17 03:35:11;;;;;;;2.20;1.13;;;15.00;70.80;;;-142.21;95.26;112049.66;5135039;27;20535;-75
2022/09/17 03:37:38;;;;;;;2.50;1.40;;;14.90;70.70;;;-142.21;95.93;112049.66;5117569;27;20486;-76
2022/09/17 03:40:08;;;;;;;1.50;0.90;;;14.90;70.80;;;-142.21;96.34;112049.66;5135324;27;20878;-75
2022/09/17 03:42:35;;;;;;;2.37;1.20;;;14.90;71.20;;;-142.21;95.90;112049.66;5135497;27;20661;-74
2022/09/17 03:45:02;;;;;;;2.40;1.50;;;14.90;71.20;;;-142.21;94.74;112049.66;5135123;27;20440;-75
2022/09/17 03:47:30;;;;;;;1.13;1.00;;;14.60;70.40;;;-142.21;94.80;112049.66;5134824;27;20948;-76
2022/09/17 03:49:57;;;;;;;1.63;1.20;;;14.50;71.30;;;-142.21;94.89;112049.66;5116281;27;20452;-77
2022/09/17 03:52:24;;;;;;;3.50;1.83;;;14.50;71.20;;;-142.21;95.22;112049.66;5117471;27;20791;-76
2022/09/17 03:54:52;;;;;;;2.27;1.67;;;14.40;71.50;;;-142.21;95.87;112049.66;5134764;27;20456;-75
2022/09/17 03:57:21;;;;;;;3.13;1.40;;;14.40;71.90;;;-142.21;96.03;112049.66;5134887;27;20444;-73
2022/09/17 03:59:49;;;;;;;1.70;1.47;;;14.40;71.90;;;-142.21;95.88;112049.66;5135332;27;20477;-75
2022/09/17 04:02:16;;;;;;;2.73;1.43;;;14.40;72.00;;;-142.21;94.15;112049.66;5133959;27;20487;-75
2022/09/17 04:04:43;;;;;;;2.60;1.43;;;14.40;71.00;;;-142.21;92.74;112049.66;5114972;28;20532;-75
2022/09/17 04:07:10;;;;;;;1.30;1.10;;;14.30;70.40;;;-142.21;92.90;112049.66;5130147;27;20445;-74
2022/09/17 04:09:38;;;;;;;2.53;1.40;;;14.20;70.50;;;-142.21;92.83;112049.66;5134553;27;21031;-74
2022/09/17 04:12:06;;;;;;;1.30;1.20;;;14.30;70.50;;;-142.21;92.20;112049.66;5134136;27;20441;-75
2022/09/17 04:14:34;;;;;;;1.60;1.40;;;14.30;70.10;;;-142.21;91.16;112049.66;5134804;27;20555;-75
2022/09/17 04:17:01;;;;;;;3.13;1.57;;;14.20;69.40;;;-142.21;91.10;112049.66;5134043;27;20445;-75
2022/09/17 04:19:28;;;;;;;5.03;2.00;;;14.00;69.50;;;-142.21;90.88;112049.66;5134774;27;20444;-75
2022/09/17 04:21:56;;;;;;;3.00;1.20;;;13.90;70.00;;;-142.21;91.41;112049.66;5133627;27;20484;-75
2022/09/17 04:24:23;;;;;;;2.23;1.60;;;13.80;70.50;;;-142.21;91.62;112049.66;5134248;27;20451;-73
2022/09/17 04:26:50;;;;;;;1.80;1.40;;;13.90;70.50;;;-142.21;91.64;112049.66;5134489;27;20447;-75
2022/09/17 04:29:17;;;;;;;1.40;1.30;;;13.90;70.50;;;-142.21;91.74;112049.66;5133123;27;21008;-74
2022/09/17 04:31:46;;;;;;;3.37;1.60;;;13.90;70.40;;;-142.21;91.57;112049.66;5133042;27;20475;-73
2022/09/17 04:34:13;;;;;;;2.80;1.87;;;13.90;70.30;;;-142.21;90.98;112049.66;5134042;27;20998;-75
2022/09/17 04:36:40;;;;;;;3.57;1.53;;;13.90;70.10;;;-142.21;91.17;112049.66;5133988;27;20451;-74
2022/09/17 04:39:09;;;;;;;2.27;1.40;;;13.80;70.00;;;-142.21;91.34;112049.66;5133608;27;20524;-74
2022/09/17 04:41:36;;;;;;;2.47;1.70;;;13.90;70.30;;;-142.21;91.31;112049.66;5134411;27;20480;-74
2022/09/17 04:44:03;;;;;;;2.90;1.60;;;13.90;70.10;;;-142.21;91.46;112049.66;5133014;27;20953;-74
2022/09/17 04:46:30;;;;;;;2.77;1.43;;;13.80;70.10;;;-142.21;91.73;112049.66;5133788;27;20440;-75
2022/09/17 04:48:59;;;;;;;1.93;1.57;;;13.90;70.30;;;-142.21;91.64;112049.66;5133294;27;20447;-74
2022/09/17 04:51:28;;;;;;;3.20;1.73;;;13.90;70.10;;;-142.21;91.32;112049.66;5134157;27;20527;-74
2022/09/17 04:53:56;;;;;;;3.33;1.50;;;13.80;70.00;;;-142.21;91.04;112049.66;5133513;27;20947;-75
2022/09/17 04:56:23;;;;;;;3.07;1.80;;;13.90;69.90;;;-142.21;91.81;112049.66;5118390;27;20440;-75
2022/09/17 04:58:50;;;;;;;3.20;1.27;;;13.90;70.00;;;-142.21;92.10;112049.66;5135194;27;20436;-74
2022/09/17 05:01:17;;;;;;;3.13;1.50;;;13.90;70.20;;;-142.21;91.89;112049.66;5133359;27;20453;-76
2022/09/17 05:03:45;;;;;;;3.93;1.70;;;13.80;70.30;;;-142.21;92.20;112049.66;5134644;27;20453;-75
2022/09/17 05:06:13;;;;;;;2.30;1.50;;;13.80;70.40;;;-142.21;91.98;112049.66;5133927;27;20448;-75
2022/09/17 05:08:41;;;;;;;4.13;1.63;;;13.70;70.70;;;-142.21;92.32;112049.66;5133728;27;20948;-75
2022/09/17 05:11:08;;;;;;;2.60;1.53;;;13.70;71.10;;;-142.21;92.61;112049.66;5133303;27;20451;-75
2022/09/17 05:13:35;;;;;;;2.83;1.40;;;13.60;70.90;;;-142.21;93.19;112049.66;5133626;27;20468;-74
2022/09/17 05:16:03;;;;;;;3.50;1.47;;;13.60;71.10;;;-142.21;93.14;112049.66;5132758;27;20472;-75
2022/09/17 05:18:30;;;;;;;4.07;1.53;;;13.60;71.20;;;-142.21;94.32;112049.66;5132820;27;20447;-75
2022/09/17 05:20:57;;;;;;;3.70;1.53;;;13.60;72.10;;;-142.21;93.33;112049.66;5132916;27;20449;-74
2022/09/17 05:23:26;;;;;;;2.40;1.70;;;13.60;71.10;;;-142.21;92.51;112049.66;5133543;27;20495;-74
2022/09/17 05:25:57;;;;;;;2.93;1.67;;;13.70;71.10;;;-142.21;92.49;112049.66;5133543;27;20505;-74
2022/09/17 05:28:24;;;;;;;3.43;1.70;;;13.70;71.10;;;-142.21;93.10;112049.66;5132324;27;20444;-74
2022/09/17 05:30:51;;;;;;;2.13;1.67;;;13.70;71.00;;;-142.21;93.48;112049.66;5132703;27;20480;-75
2022/09/17 05:33:19;;;;;;;3.53;1.33;;;13.70;71.40;;;-142.21;93.14;112049.66;5121541;27;20441;-74
2022/09/17 05:35:46;;;;;;;2.23;1.73;;;13.70;71.20;;;-142.21;92.47;112049.66;5134783;27;20540;-74
2022/09/17 05:38:13;;;;;;;3.00;1.67;;;13.70;70.90;;;-142.21;92.27;112049.66;5131766;27;20948;-74
2022/09/17 05:40:42;;;;;;;3.83;1.63;;;13.70;70.80;;;-142.21;92.86;112049.66;5133319;27;20447;-75
2022/09/17 05:43:10;;;;;;;4.07;1.87;;;13.80;71.00;;;-142.21;93.25;112049.66;5132047;27;20482;-74
2022/09/17 05:45:38;;;;;;;2.80;1.90;;;13.80;71.30;;;-142.21;94.14;112049.66;5135115;27;20451;-75
2022/09/17 05:48:11;;;;;;;3.07;1.57;;;13.80;71.70;;;-142.21;94.29;112049.66;5134585;27;21016;-74
2022/09/17 05:50:38;;;;;;;3.03;1.83;;;13.90;71.50;;;-142.21;95.43;112049.66;5132945;27;20531;-76
2022/09/17 05:53:10;;;;;;;3.17;1.60;;;13.80;72.00;;;-142.21;96.33;112049.66;5132435;27;20532;-74
2022/09/17 05:55:38;;;;;;;3.50;1.57;;;13.70;73.00;;;-142.21;97.00;112049.66;5132835;27;20469;-75
2022/09/17 05:58:16;;;;;;;2.17;1.80;;;13.70;73.30;;;-142.21;98.69;112049.66;5131829;27;20445;-75
2022/09/17 06:00:46;;;;;;;3.40;1.90;;;13.70;74.00;;;-142.21;99.22;112049.66;5132942;27;20456;-75
2022/09/17 06:03:16;;;;;;;4.93;2.10;;;13.80;74.20;;;-142.21;99.68;112049.66;5132168;27;20468;-74
2022/09/17 06:05:52;;;;;;;2.67;1.70;;;13.70;74.50;;;-142.21;100.00;112049.66;5133040;27;20948;-74
2022/09/17 06:08:19;;;;;;;2.70;1.70;;;13.70;75.20;;;-142.21;100.00;112049.66;5115301;27;20440;-74
2022/09/17 06:10:46;;;;;;;2.50;2.03;;;13.60;75.80;;;-142.21;100.00;112049.66;5132333;27;20451;-74
2022/09/17 06:13:15;;;;;;;4.93;2.03;;;13.50;76.10;;;-142.21;100.00;112049.66;5131573;27;20536;-74
2022/09/17 06:15:42;;;;;;;4.40;2.00;;;13.50;76.30;;;-142.21;100.00;112049.66;5132764;28;20998;-74
2022/09/17 06:18:09;;;;;;;2.37;2.00;;;13.50;76.60;;;-142.21;100.00;112049.66;5131941;28;20445;-74
2022/09/17 06:20:37;;;;;;;4.67;2.50;;;13.50;77.10;;;-142.21;100.00;112049.66;5132568;28;20443;-74
2022/09/17 06:23:04;;;;;;;5.43;2.40;;;13.40;77.40;;;-142.21;100.00;112049.66;5113676;28;20477;-74
2022/09/17 06:25:31;;;;;;;3.17;2.23;;;13.50;78.00;;;-142.21;100.00;112049.66;5132651;28;20527;-74
2022/09/17 06:27:58;;;;;;;4.97;2.30;;;13.60;77.80;;;-142.21;100.00;112049.66;5131763;28;20592;-74
2022/09/17 06:30:27;;;;;;;3.13;1.93;;;13.70;77.90;;;-142.21;100.00;112049.66;5132407;28;20547;-74
2022/09/17 06:32:54;;;;;;;4.30;2.23;;;13.70;77.90;;;-142.21;100.00;112049.66;5131719;28;20472;-74
2022/09/17 06:35:21;;;;;;;5.50;2.70;;;13.70;77.80;;;-142.21;100.00;112049.66;5132001;28;20448;-75
2022/09/17 06:37:48;;;;;;;3.10;2.23;;;13.80;77.30;;;-142.21;100.00;112049.66;5132167;28;20544;-75
2022/09/17 06:40:16;;;;;;;3.53;2.60;;;13.80;77.50;;;-142.21;100.00;112049.66;5131857;28;20533;-75
2022/09/17 06:42:44;;;;;;;3.30;2.10;;;13.80;77.70;;;-142.21;100.00;112049.66;5113667;28;20480;-76
2022/09/17 06:45:11;;;;;;;3.00;2.13;;;13.80;77.60;;;-142.21;100.00;112049.66;5131325;28;20456;-75
2022/09/17 06:47:39;;;;;;;5.27;2.53;;;13.80;77.80;;;-142.21;100.00;112049.66;5132300;28;20877;-74
2022/09/17 06:50:07;;;;;;;5.30;2.70;;;13.70;78.10;;;-142.21;100.00;112049.66;5079050;28;20881;-74
2022/09/17 06:52:34;;;;;;;3.53;2.50;;;13.80;77.80;;;-142.21;100.00;112049.66;5132321;28;20443;-75
2022/09/17 06:55:01;;;;;;;4.87;2.57;;;13.80;77.70;;;-142.21;100.00;112049.66;5131808;27;20812;-75
2022/09/17 06:57:28;;;;;;;2.90;2.60;;;13.80;77.40;;;-142.21;100.00;112049.66;5135833;27;20436;-75
2022/09/17 06:59:55;;;;;;;4.97;2.80;;;13.90;78.20;;;-142.21;100.00;112049.66;5136477;27;20854;-75
2022/09/17 07:02:26;;;;;;;3.63;2.87;;;13.90;78.20;;;-142.21;100.00;112049.66;5135285;27;20502;-75
2022/09/17 07:04:57;;;;;;;4.73;2.40;;;13.90;77.80;;;-142.21;100.00;112049.66;5136171;27;20437;-75
2022/09/17 07:07:24;;;;;;;3.60;2.60;;;13.90;78.30;;;-142.21;100.00;112049.66;5135508;27;20797;-75
2022/09/17 07:09:51;;;;;;;5.73;3.40;;;14.00;78.30;;;-142.21;100.00;112049.66;5135596;27;20446;-74
2022/09/17 07:12:18;;;;;;;3.97;3.30;;;14.10;77.50;;;-142.21;100.00;112049.66;5135300;27;20859;-75
2022/09/17 07:14:46;;;;;;;3.60;2.70;;;14.10;77.40;;;-142.21;100.00;112049.66;5131621;27;20467;-79
2022/09/17 07:17:14;;;;;;;3.90;2.97;;;14.10;77.60;;;-142.21;100.00;112049.66;5135406;27;20444;-76
2022/09/17 07:19:41;;;;;;;4.27;3.20;;;14.10;77.50;;;-142.21;100.00;112049.66;5135872;27;20436;-76
2022/09/17 07:22:10;;;;;;;4.93;3.20;;;14.10;77.90;;;-142.21;100.00;112049.66;5134766;27;20567;-77
2022/09/17 07:24:37;;;;;;;4.67;2.97;;;14.10;78.20;;;-142.21;100.00;112049.66;5135475;27;20449;-77
2022/09/17 07:27:06;;;;;;;4.50;2.77;;;14.10;78.00;;;-142.21;100.00;112049.66;5134877;27;20993;-78
2022/09/17 07:29:35;;;;;;;3.93;2.93;;;14.10;77.90;;;-142.21;100.00;112049.66;5135805;27;20523;-75
2022/09/17 07:32:03;;;;;;;6.27;3.57;;;14.20;77.90;;;-142.21;100.00;112049.66;5134901;27;20491;-77
2022/09/17 07:34:31;;;;;;;4.77;2.80;;;14.30;78.20;;;-142.21;100.00;112049.66;5135535;27;20476;-78
2022/09/17 07:36:58;;;;;;;3.23;2.93;;;14.40;77.40;;;-142.21;100.00;112049.66;5135174;27;20491;-78
2022/09/17 07:39:29;;;;;;;3.93;2.83;;;14.60;77.10;;;-142.21;100.00;112049.66;5141266;27;20479;-76
2022/09/17 07:41:56;;;;;;;4.50;2.83;;;14.70;76.60;;;-142.21;100.00;112049.66;5140992;27;20440;-76
2022/09/17 07:44:24;;;;;;;4.60;3.17;;;14.70;76.00;;;-142.21;100.00;112049.66;5138665;27;21086;-72
2022/09/17 07:46:51;;;;;;;5.97;2.70;;;14.90;76.60;;;-142.21;100.00;112049.66;5135105;27;20497;-74
2022/09/17 07:49:18;;;;;;;6.27;2.73;;;15.00;77.40;;;-142.21;100.00;112049.66;5134719;27;20440;-75
2022/09/17 07:51:46;;;;;;;3.53;2.33;;;15.20;77.20;;;-142.21;97.69;112049.66;5135303;27;20480;-74
2022/09/17 07:54:13;;;;;;;5.10;2.50;;;15.30;74.80;;;-142.21;99.37;112049.66;5135348;27;20441;-75
2022/09/17 07:56:41;;;;;;;3.40;2.30;;;15.50;75.80;;;-142.21;96.91;112049.66;5135140;27;20494;-74
2022/09/17 07:59:09;;;;;;;3.27;2.50;;;15.60;74.20;;;-142.21;96.64;112049.66;5134326;27;20519;-74
2022/09/17 08:01:37;;;;;;;3.00;2.17;;;15.60;74.20;;;-142.21;96.75;112049.66;5134353;27;20452;-79
2022/09/17 08:04:05;;;;;;;5.60;2.60;;;15.70;73.90;;;-142.21;95.36;112049.66;5134200;27;20484;-78
2022/09/17 08:06:39;;;;;;;5.20;2.63;;;15.70;72.60;;;-142.21;96.71;112049.66;5133098;27;20445;-78
2022/09/17 08:09:08;;;;;;;5.83;2.60;;;15.50;73.50;;;-142.21;96.83;112049.66;5134239;27;20925;-80
2022/09/17 08:11:36;;;;;;;4.53;2.57;;;15.70;73.70;;;-142.21;96.09;112049.66;5134824;27;20945;-77
2022/09/17 08:14:05;;;;;;;2.87;2.50;;;15.60;73.20;;;-142.21;96.29;112049.66;5134138;27;20513;-79
2022/09/17 08:16:32;;;;;;;4.43;2.77;;;15.70;73.40;;;-142.21;96.13;112049.66;5134981;27;20455;-79
2022/09/17 08:19:00;;;;;;;3.30;2.20;;;15.60;73.10;;;-142.21;97.76;112049.66;5134607;27;20494;-79
2022/09/17 08:21:27;;;;;;;2.83;2.20;;;15.70;74.50;;;-142.21;93.89;112049.66;5134224;27;20445;-80
2022/09/17 08:23:54;;;;;;;5.67;2.00;;;15.90;72.60;;;-142.21;92.27;112049.66;5134030;27;20476;-79
2022/09/17 08:26:24;;;;;;;5.10;2.40;;;15.80;70.90;;;-142.21;91.55;112049.66;5134013;27;20440;-76
2022/09/17 08:28:55;;;;;;;2.73;1.90;;;15.60;70.50;;;-142.21;93.91;112049.66;5134587;27;20807;-75
2022/09/17 08:31:27;;;;;;;3.33;2.00;;;15.70;72.20;;;-142.21;91.63;112049.66;5133723;27;20486;-79
2022/09/17 08:33:54;;;;;;;2.80;1.90;;;15.90;70.90;;;-142.21;92.16;112049.66;5133940;27;20515;-76
2022/09/17 08:36:24;;;;;;;2.67;1.80;;;16.10;71.20;;;-142.21;88.01;112049.66;5133465;27;20532;-76
2022/09/17 08:38:54;;;;;;;2.47;1.80;;;16.30;69.30;;;-142.21;84.59;112049.66;5133687;27;20466;-75
2022/09/17 08:41:31;;;;;;;2.63;1.80;;;16.30;67.40;;;-142.21;84.52;112049.66;5133298;27;20472;-74
2022/09/17 08:44:21;;;;;;;4.60;1.73;;;16.40;67.20;;;-142.21;82.64;112049.66;5124988;27;20460;-75
2022/09/17 08:46:54;;;;;;;3.60;1.77;;;16.10;65.00;;;-142.21;83.32;112049.66;5134181;27;20437;-75
2022/09/17 08:49:35;;;;;;;4.03;1.80;;;16.10;65.90;;;-142.21;85.61;112049.66;5115019;27;20437;-75
2022/09/17 08:52:36;;;;;;;3.37;1.60;;;16.20;67.30;;;-142.21;83.38;112049.66;5134358;27;20464;-75
2022/09/17 08:55:28;;;;;;;3.67;1.63;;;16.40;66.20;;;-142.21;80.38;112049.66;5124714;27;20849;-76
2022/09/17 08:58:22;;;;;;;5.27;1.70;;;16.60;64.10;;;-142.21;81.18;112049.66;5133954;27;20847;-76
2022/09/17 09:00:57;;;;;;;2.37;1.60;;;16.50;64.70;;;-142.21;80.40;112049.66;5118258;27;20452;-76
2022/09/17 09:03:50;;;;;;;6.50;1.80;;;16.40;64.90;;;-142.21;79.60;112049.66;5133157;27;20558;-75
2022/09/17 09:06:23;;;;;;;2.57;1.67;;;16.40;64.20;;;-142.21;81.22;112049.66;5132031;27;20522;-76
2022/09/17 09:09:00;;;;;;;2.93;1.73;;;16.50;65.10;;;-142.21;79.94;112049.66;5131960;27;20432;-76
2022/09/17 09:11:30;;;;;;;3.73;1.63;;;16.80;64.40;;;-142.21;77.66;112049.66;5132676;27;20456;-77
2022/09/17 09:14:06;;;;;;;4.07;2.03;;;16.90;62.70;;;-142.21;77.39;112049.66;5133657;27;20539;-76
2022/09/17 09:16:41;;;;;;;5.03;1.87;;;16.90;62.50;;;-142.21;75.77;112049.66;5131717;27;20440;-76
2022/09/17 09:19:22;;;;;;;2.60;1.50;;;16.80;61.60;;;-142.21;76.29;112049.66;5121614;27;20459;-76
2022/09/17 09:22:04;;;;;;;2.97;1.77;;;17.00;62.50;;;-142.21;78.30;112049.66;5112793;28;20457;-75
2022/09/17 09:24:41;;;;;;;3.93;1.60;;;17.20;63.20;;;-142.21;75.64;112049.66;5112794;28;20847;-75
2022/09/17 09:27:18;;;;;;;3.87;1.60;;;17.30;61.70;;;-142.21;71.74;112049.66;5127145;27;20516;-76
2022/09/17 09:30:03;;;;;;;3.23;1.47;;;17.40;60.00;;;-142.21;71.01;112049.66;5133665;27;20432;-77
2022/09/17 09:32:56;;;;;;;3.40;1.50;;;17.60;59.90;;;-142.21;71.41;112049.66;5131995;27;21005;-75
2022/09/17 09:35:29;;;;;;;2.77;2.10;;;17.50;59.60;;;-142.21;71.01;112049.66;5116122;27;20444;-75
2022/09/17 09:38:07;;;;;;;2.97;1.57;;;17.40;59.30;;;-142.21;71.22;112049.66;5097253;27;20441;-77
2022/09/17 09:40:42;;;;;;;3.77;1.70;;;17.50;59.60;;;-142.21;74.35;112049.66;5132388;27;20512;-77
2022/09/17 09:43:20;;;;;;;3.00;1.63;;;17.60;60.60;;;-142.21;70.17;112049.66;5133315;27;20468;-76
2022/09/17 09:46:09;;;;;;;1.80;1.30;;;17.50;59.00;;;-142.21;71.29;112049.66;5133121;27;20468;-75
2022/09/17 09:48:53;;;;;;;3.53;1.47;;;17.30;59.40;;;-142.21;70.19;112049.66;5098910;27;20523;-75
2022/09/17 09:51:36;;;;;;;2.33;1.73;;;17.50;59.60;;;-142.21;72.52;112049.66;5111988;28;20858;-76
2022/09/17 09:54:26;;;;;;;2.03;1.30;;;17.70;60.50;;;-142.21;73.69;112049.66;5129594;27;20841;-75
2022/09/17 09:56:58;;;;;;;3.47;1.50;;;17.90;61.20;;;-142.21;68.45;112049.66;5133360;27;20568;-77
2022/09/17 09:59:26;;;;;;;3.17;1.47;;;17.90;58.50;;;-142.21;68.06;112049.66;5131937;27;20464;-75
2022/09/17 10:01:53;;;;;;;2.57;1.47;;;17.80;58.50;;;-142.21;67.84;112049.66;5132725;27;20539;-76
2022/09/17 10:04:23;;;;;;;2.73;1.77;;;17.90;58.60;;;-142.21;66.79;112049.66;5131211;27;20476;-76
2022/09/17 10:06:55;;;;;;;3.50;1.80;;;18.20;58.50;;;-142.21;65.07;112049.66;5132582;27;20811;-77
2022/09/17 10:09:23;;;;;;;2.03;1.37;;;18.40;57.50;;;-142.21;66.11;112049.66;5131794;27;20525;-75
2022/09/17 10:12:16;;;;;;;3.07;1.57;;;18.50;58.10;;;-142.21;67.12;112049.66;5132457;27;21000;-76
2022/09/17 10:14:45;;;;;;;2.90;1.40;;;18.60;57.80;;;-142.21;65.45;112049.66;5116633;28;20215;-78
2022/09/17 10:17:19;;;;;;;3.13;1.70;;;18.50;56.80;;;-142.21;65.00;112049.66;5130485;28;20440;-76
2022/09/17 10:20:12;;;;;;;3.07;1.60;;;18.40;57.00;;;-142.21;67.80;112049.66;5116042;28;20457;-75